Time;durP1;ratioP1;P1;durP2;ratioP2;P2;SDS_P1;SDS_P2;PMS_P1;PMS_P2;Temp;Humidity;BMP_temperature;BMP_pressure;BME280_temperature;BME280_humidity;BME280_pressure;Samples;Min_cycle;Max_cycle;Signal;HPM_P1;HPM_P2
2021/08/11 00:00:40;;;;;;;5.03;3.00;;;;;;;;;;5054474;28;20029;-59
2021/08/11 00:03:06;;;;;;;5.18;2.85;;;;;;;;;;5054604;28;20434;-59
2021/08/11 00:05:32;;;;;;;4.55;2.90;;;;;;;;;;5053054;28;20033;-59
2021/08/11 00:07:58;;;;;;;6.68;3.13;;;;;;;;;;5053832;28;20024;-59
2021/08/11 00:10:24;;;;;;;3.20;2.53;;;;;;;;;;5053897;28;20517;-59
2021/08/11 00:12:50;;;;;;;4.45;2.38;;;;;;;;;;5053886;28;20021;-59
2021/08/11 00:15:16;;;;;;;5.28;3.38;;;;;;;;;;5053794;28;20071;-59
2021/08/11 00:17:42;;;;;;;4.25;2.83;;;;;;;;;;5053967;28;20405;-59
2021/08/11 00:20:08;;;;;;;7.80;2.95;;;;;;;;;;5053607;28;20048;-59
2021/08/11 00:22:34;;;;;;;3.40;2.17;;;;;;;;;;5054528;28;20056;-59
2021/08/11 00:25:00;;;;;;;8.25;3.55;;;;;;;;;;5053660;28;20080;-59
2021/08/11 00:27:26;;;;;;;3.80;2.80;;;;;;;;;;5053872;28;20036;-59
2021/08/11 00:29:52;;;;;;;3.20;2.42;;;;;;;;;;5053906;28;20467;-59
2021/08/11 00:32:18;;;;;;;3.28;2.70;;;;;;;;;;5054499;28;20017;-59
2021/08/11 00:34:44;;;;;;;3.03;2.20;;;;;;;;;;5053864;28;20442;-59
2021/08/11 00:37:10;;;;;;;4.03;3.10;;;;;;;;;;5053509;28;20028;-59
2021/08/11 00:39:38;;;;;;;3.92;2.78;;;;;;;;;;5053512;28;20052;-59
2021/08/11 00:42:04;;;;;;;3.80;2.40;;;;;;;;;;5053474;28;20025;-59
2021/08/11 00:44:30;;;;;;;4.32;2.72;;;;;;;;;;5053446;28;20029;-59
2021/08/11 00:46:56;;;;;;;2.83;2.33;;;;;;;;;;5053049;28;20032;-58
2021/08/11 00:49:22;;;;;;;7.82;3.80;;;;;;;;;;5053414;28;20108;-58
2021/08/11 00:51:48;;;;;;;3.50;2.75;;;;;;;;;;5053450;28;20021;-59
2021/08/11 00:54:14;;;;;;;4.78;3.22;;;;;;;;;;5053405;28;20024;-59
2021/08/11 00:56:43;;;;;;;5.35;3.42;;;;;;;;;;5053168;28;20099;-59
2021/08/11 00:59:10;;;;;;;5.97;3.03;;;;;;;;;;5053368;28;20044;-59
2021/08/11 01:01:37;;;;;;;3.67;3.13;;;;;;;;;;5053354;28;20018;-58
2021/08/11 01:04:03;;;;;;;4.95;3.50;;;;;;;;;;5053317;28;20025;-58
2021/08/11 01:06:31;;;;;;;3.90;2.97;;;;;;;;;;5053227;28;20021;-58
2021/08/11 01:08:57;;;;;;;7.95;3.38;;;;;;;;;;5053577;28;20068;-59
2021/08/11 01:11:24;;;;;;;3.33;2.70;;;;;;;;;;5053182;28;20048;-59
2021/08/11 01:13:50;;;;;;;5.88;3.25;;;;;;;;;;5053762;28;20029;-58
2021/08/11 01:16:16;;;;;;;4.13;3.05;;;;;;;;;;5053398;28;20017;-58
2021/08/11 01:18:42;;;;;;;8.38;3.30;;;;;;;;;;5056917;28;20071;-58
2021/08/11 01:21:17;;;;;;;3.35;2.72;;;;;;;;;;5056636;28;20017;-58
2021/08/11 01:23:46;;;;;;;4.97;3.95;;;;;;;;;;5057475;28;20021;-59
2021/08/11 01:26:20;;;;;;;4.90;3.55;;;;;;;;;;5057658;28;20053;-59
2021/08/11 01:28:56;;;;;;;4.18;3.35;;;;;;;;;;5057090;28;20024;-58
2021/08/11 01:31:30;;;;;;;5.90;3.67;;;;;;;;;;5057073;28;20082;-58
2021/08/11 01:34:03;;;;;;;5.97;4.10;;;;;;;;;;5057296;28;20025;-58
2021/08/11 01:36:29;;;;;;;4.72;4.03;;;;;;;;;;5056864;28;20463;-59
2021/08/11 01:39:00;;;;;;;4.82;3.40;;;;;;;;;;5057153;28;20021;-59
2021/08/11 01:41:25;;;;;;;;;;;;;;;;;;5057360;28;20017;-58
2021/08/11 01:43:51;;;;;;;4.60;3.38;;;;;;;;;;5056809;28;19909;-59
2021/08/11 01:46:18;;;;;;;5.15;3.55;;;;;;;;;;5056849;28;20096;-58
2021/08/11 01:48:45;;;;;;;4.30;3.20;;;;;;;;;;5056408;28;20099;-58
2021/08/11 01:51:11;;;;;;;4.18;3.33;;;;;;;;;;5056703;28;20516;-59
2021/08/11 01:53:38;;;;;;;6.63;3.60;;;;;;;;;;5056781;28;20021;-58
2021/08/11 01:56:04;;;;;;;4.72;3.20;;;;;;;;;;5056324;28;20403;-58
2021/08/11 01:58:31;;;;;;;4.32;3.78;;;;;;;;;;5056003;28;20552;-59
2021/08/11 02:01:01;;;;;;;4.65;3.63;;;;;;;;;;5056770;28;20021;-58
2021/08/11 02:03:28;;;;;;;3.70;2.85;;;;;;;;;;5056993;28;20021;-59
2021/08/11 02:05:54;;;;;;;4.93;3.60;;;;;;;;;;5056215;28;20024;-58
2021/08/11 02:08:24;;;;;;;5.80;3.20;;;;;;;;;;5056056;28;20100;-58
2021/08/11 02:10:52;;;;;;;5.85;3.58;;;;;;;;;;5056404;28;20104;-59
2021/08/11 02:13:18;;;;;;;3.80;3.20;;;;;;;;;;5056391;28;20021;-59
2021/08/11 02:15:48;;;;;;;7.57;5.18;;;;;;;;;;5055693;28;20541;-59
2021/08/11 02:18:14;;;;;;;5.10;4.03;;;;;;;;;;5055970;28;20072;-58
2021/08/11 02:20:41;;;;;;;5.63;4.22;;;;;;;;;;5055761;28;20025;-58
2021/08/11 02:23:07;;;;;;;7.88;4.40;;;;;;;;;;5056163;28;20057;-59
2021/08/11 02:25:34;;;;;;;7.40;5.15;;;;;;;;;;5054217;28;20045;-58
2021/08/11 02:28:08;;;;;;;8.52;4.60;;;;;;;;;;5053945;28;20033;-59
2021/08/11 02:30:44;;;;;;;6.47;4.20;;;;;;;;;;5055654;28;20029;-58
2021/08/11 02:33:14;;;;;;;8.93;5.25;;;;;;;;;;5056178;28;20032;-58
2021/08/11 02:35:40;;;;;;;;;;;;;;;;;;5056063;28;20100;-58
2021/08/11 02:38:08;;;;;;;7.63;4.15;;;;;;;;;;5055758;28;19954;-58
2021/08/11 02:40:39;;;;;;;5.72;4.00;;;;;;;;;;5055486;28;20036;-58
2021/08/11 02:43:05;;;;;;;5.00;4.20;;;;;;;;;;5055542;28;20025;-58
2021/08/11 02:45:32;;;;;;;7.15;4.47;;;;;;;;;;5055364;28;20036;-58
2021/08/11 02:48:00;;;;;;;5.15;4.20;;;;;;;;;;5055559;28;20417;-59
2021/08/11 02:50:26;;;;;;;7.15;4.72;;;;;;;;;;5055806;28;20025;-58
2021/08/11 02:52:53;;;;;;;4.95;3.80;;;;;;;;;;5054951;28;20040;-58
2021/08/11 02:55:19;;;;;;;6.47;3.22;;;;;;;;;;5055127;28;20021;-58
2021/08/11 02:57:46;;;;;;;7.10;4.43;;;;;;;;;;5055164;28;20489;-58
2021/08/11 03:00:12;;;;;;;7.00;4.35;;;;;;;;;;5055101;28;20029;-58
2021/08/11 03:02:38;;;;;;;5.38;3.95;;;;;;;;;;5055412;28;20474;-58
2021/08/11 03:05:05;;;;;;;4.18;3.78;;;;;;;;;;5054737;28;20024;-59
2021/08/11 03:07:31;;;;;;;5.78;4.80;;;;;;;;;;5054813;28;20029;-58
2021/08/11 03:09:57;;;;;;;5.15;4.65;;;;;;;;;;5054938;28;20086;-58
2021/08/11 03:12:23;;;;;;;7.93;4.75;;;;;;;;;;5054956;28;20021;-58
2021/08/11 03:14:50;;;;;;;6.40;4.47;;;;;;;;;;5054894;28;20032;-58
2021/08/11 03:17:16;;;;;;;6.85;3.47;;;;;;;;;;5054804;28;20108;-58
2021/08/11 03:19:43;;;;;;;5.28;4.15;;;;;;;;;;5055159;28;20098;-58
2021/08/11 03:22:10;;;;;;;5.63;4.20;;;;;;;;;;5055546;28;20029;-58
2021/08/11 03:24:37;;;;;;;4.93;4.07;;;;;;;;;;5054975;28;20049;-58
2021/08/11 03:27:03;;;;;;;5.95;4.00;;;;;;;;;;5054546;28;20033;-58
2021/08/11 03:29:29;;;;;;;4.82;3.70;;;;;;;;;;5054608;28;20025;-59
2021/08/11 03:31:55;;;;;;;5.20;3.92;;;;;;;;;;5054571;28;20017;-58
2021/08/11 03:34:22;;;;;;;6.05;4.32;;;;;;;;;;5054574;28;20029;-59
2021/08/11 03:36:50;;;;;;;5.72;4.32;;;;;;;;;;5055066;28;20029;-58
2021/08/11 03:39:16;;;;;;;5.18;3.95;;;;;;;;;;5054715;28;20047;-59
2021/08/11 03:41:42;;;;;;;5.43;3.35;;;;;;;;;;5053919;28;20104;-58
2021/08/11 03:44:08;;;;;;;4.57;3.83;;;;;;;;;;5054359;28;20091;-58
2021/08/11 03:46:34;;;;;;;6.88;4.50;;;;;;;;;;5054126;28;20021;-58
2021/08/11 03:49:00;;;;;;;6.72;4.80;;;;;;;;;;5054338;28;20151;-58
2021/08/11 03:51:26;;;;;;;6.57;3.78;;;;;;;;;;5054764;28;20029;-58
2021/08/11 03:53:51;;;;;;;5.57;4.18;;;;;;;;;;5054208;28;20034;-58
2021/08/11 03:56:20;;;;;;;7.88;4.15;;;;;;;;;;5053949;28;20460;-58
2021/08/11 03:58:46;;;;;;;8.68;4.20;;;;;;;;;;5054045;28;20028;-58
2021/08/11 04:01:12;;;;;;;4.95;3.63;;;;;;;;;;5053079;28;20043;-59
2021/08/11 04:03:38;;;;;;;6.78;4.53;;;;;;;;;;5054065;28;20116;-58
2021/08/11 04:06:04;;;;;;;4.50;3.47;;;;;;;;;;5054035;28;20133;-58
2021/08/11 04:08:30;;;;;;;6.78;4.50;;;;;;;;;;5054348;28;20044;-58
2021/08/11 04:10:56;;;;;;;7.88;4.53;;;;;;;;;;5054099;28;20033;-58
2021/08/11 04:13:22;;;;;;;6.45;4.25;;;;;;;;;;5054515;28;20052;-58
2021/08/11 04:15:48;;;;;;;4.78;4.10;;;;;;;;;;5054612;28;20028;-58
2021/08/11 04:18:14;;;;;;;5.35;4.50;;;;;;;;;;5054306;28;20119;-58
2021/08/11 04:20:41;;;;;;;5.30;4.40;;;;;;;;;;5053813;28;20032;-59
2021/08/11 04:23:10;;;;;;;7.93;4.68;;;;;;;;;;5053969;28;20485;-58
2021/08/11 04:25:39;;;;;;;5.97;4.85;;;;;;;;;;5053769;28;20120;-59
2021/08/11 04:28:05;;;;;;;5.50;4.95;;;;;;;;;;5053609;28;20037;-58
2021/08/11 04:30:31;;;;;;;5.03;4.40;;;;;;;;;;5053712;28;20028;-58
2021/08/11 04:33:00;;;;;;;6.00;4.80;;;;;;;;;;5053798;28;20090;-58
2021/08/11 04:35:28;;;;;;;8.07;5.05;;;;;;;;;;5053963;28;20021;-58
2021/08/11 04:37:59;;;;;;;6.95;5.60;;;;;;;;;;5053627;28;20033;-58
2021/08/11 04:40:25;;;;;;;7.10;5.20;;;;;;;;;;5053926;28;20025;-58
2021/08/11 04:42:51;;;;;;;7.88;4.75;;;;;;;;;;5054184;28;20025;-58
2021/08/11 04:45:17;;;;;;;6.50;4.72;;;;;;;;;;5053570;28;20352;-58
2021/08/11 04:47:43;;;;;;;14.90;5.68;;;;;;;;;;5053402;28;20033;-58
2021/08/11 04:50:10;;;;;;;10.88;5.03;;;;;;;;;;5053477;28;20040;-58
2021/08/11 04:52:36;;;;;;;6.60;3.78;;;;;;;;;;5056177;28;20039;-58
2021/08/11 04:55:04;;;;;;;6.82;4.32;;;;;;;;;;5057224;28;20025;-58
2021/08/11 04:57:31;;;;;;;5.60;5.05;;;;;;;;;;5057541;28;20037;-58
2021/08/11 04:59:56;;;;;;;6.50;5.13;;;;;;;;;;5058258;28;20052;-58
2021/08/11 05:02:22;;;;;;;8.80;5.07;;;;;;;;;;5058295;28;20042;-58
2021/08/11 05:04:51;;;;;;;5.00;4.30;;;;;;;;;;5057462;28;20453;-58
2021/08/11 05:07:17;;;;;;;10.13;5.07;;;;;;;;;;5057550;28;20036;-58
2021/08/11 05:09:43;;;;;;;6.20;4.93;;;;;;;;;;5057324;28;20033;-58
2021/08/11 05:12:09;;;;;;;8.88;5.43;;;;;;;;;;5057233;28;20074;-58
2021/08/11 05:14:35;;;;;;;6.50;5.32;;;;;;;;;;5057520;28;20069;-58
2021/08/11 05:17:01;;;;;;;10.20;5.38;;;;;;;;;;5057116;28;20036;-58
2021/08/11 05:19:27;;;;;;;7.40;5.70;;;;;;;;;;5057010;28;20029;-58
2021/08/11 05:21:53;;;;;;;5.82;5.22;;;;;;;;;;5057199;28;20033;-58
2021/08/11 05:24:19;;;;;;;6.00;4.88;;;;;;;;;;5057315;28;20025;-58
2021/08/11 05:26:45;;;;;;;8.57;5.35;;;;;;;;;;5057830;28;20053;-58
2021/08/11 05:29:16;;;;;;;5.88;5.18;;;;;;;;;;5056915;28;20167;-58
2021/08/11 05:31:42;;;;;;;6.63;5.18;;;;;;;;;;5056671;28;20116;-58
2021/08/11 05:34:08;;;;;;;9.82;6.60;;;;;;;;;;5056796;28;20120;-58
2021/08/11 05:36:34;;;;;;;7.78;5.18;;;;;;;;;;5056860;28;20108;-58
2021/08/11 05:39:00;;;;;;;6.85;5.95;;;;;;;;;;5057211;28;20029;-58
2021/08/11 05:41:26;;;;;;;5.70;4.82;;;;;;;;;;5057046;28;20032;-58
2021/08/11 05:43:52;;;;;;;5.55;4.82;;;;;;;;;;5056296;28;20033;-58
2021/08/11 05:46:18;;;;;;;6.47;5.28;;;;;;;;;;5057030;28;20021;-58
2021/08/11 05:48:44;;;;;;;8.55;4.95;;;;;;;;;;5056505;28;20029;-58
2021/08/11 05:51:10;;;;;;;6.70;4.70;;;;;;;;;;5056515;28;20040;-58
2021/08/11 05:53:36;;;;;;;9.77;5.00;;;;;;;;;;5056406;28;20493;-58
2021/08/11 05:56:02;;;;;;;7.80;5.47;;;;;;;;;;5056922;28;20064;-58
2021/08/11 05:58:28;;;;;;;5.50;4.43;;;;;;;;;;5056333;28;20025;-58
2021/08/11 06:00:54;;;;;;;9.05;4.43;;;;;;;;;;5056378;28;20506;-58
2021/08/11 06:03:22;;;;;;;7.45;4.80;;;;;;;;;;5055570;28;20025;-58
2021/08/11 06:05:51;;;;;;;7.97;4.82;;;;;;;;;;5056061;28;20021;-58
2021/08/11 06:08:17;;;;;;;5.68;4.57;;;;;;;;;;5055825;28;20151;-58
2021/08/11 06:10:43;;;;;;;4.70;4.18;;;;;;;;;;5056176;28;20097;-59
2021/08/11 06:13:09;;;;;;;7.60;4.18;;;;;;;;;;5055844;28;20021;-58
2021/08/11 06:15:35;;;;;;;7.82;4.45;;;;;;;;;;5056369;28;20078;-58
2021/08/11 06:18:01;;;;;;;4.90;3.83;;;;;;;;;;5055642;28;20033;-58
2021/08/11 06:20:27;;;;;;;5.03;3.60;;;;;;;;;;5055848;28;20029;-58
2021/08/11 06:22:53;;;;;;;4.80;4.28;;;;;;;;;;5055512;28;20024;-58
2021/08/11 06:25:19;;;;;;;5.40;4.03;;;;;;;;;;5055175;28;20124;-59
2021/08/11 06:27:45;;;;;;;6.32;3.70;;;;;;;;;;5056187;28;20418;-58
2021/08/11 06:30:12;;;;;;;6.03;3.67;;;;;;;;;;5055797;28;20329;-58
2021/08/11 06:32:38;;;;;;;7.30;4.28;;;;;;;;;;5055826;28;20021;-59
2021/08/11 06:35:05;;;;;;;6.07;3.63;;;;;;;;;;5056186;28;20025;-59
2021/08/11 06:37:41;;;;;;;4.32;3.67;;;;;;;;;;5055700;28;20065;-59
2021/08/11 06:40:08;;;;;;;7.30;4.35;;;;;;;;;;5055636;28;20021;-58
2021/08/11 06:42:34;;;;;;;5.70;4.10;;;;;;;;;;5055873;28;20079;-58
2021/08/11 06:45:00;;;;;;;6.10;3.92;;;;;;;;;;5055200;28;20049;-59
2021/08/11 06:47:26;;;;;;;7.40;3.65;;;;;;;;;;5054146;28;20064;-59
2021/08/11 06:49:52;;;;;;;6.70;3.60;;;;;;;;;;5054955;28;20078;-59
2021/08/11 06:52:17;;;;;;;4.72;3.55;;;;;;;;;;5056292;28;20035;-59
2021/08/11 06:54:43;;;;;;;5.97;3.65;;;;;;;;;;5055269;28;20040;-59
2021/08/11 06:57:09;;;;;;;9.32;4.95;;;;;;;;;;5055479;28;20122;-58
2021/08/11 06:59:35;;;;;;;4.63;3.63;;;;;;;;;;5055386;28;20096;-58
2021/08/11 07:02:01;;;;;;;8.82;3.40;;;;;;;;;;5055761;28;20117;-59
2021/08/11 07:04:27;;;;;;;4.88;3.83;;;;;;;;;;5055137;28;20108;-59
2021/08/11 07:06:54;;;;;;;6.03;4.13;;;;;;;;;;5054779;28;20025;-59
2021/08/11 07:09:23;;;;;;;4.03;3.15;;;;;;;;;;5054461;28;20528;-59
2021/08/11 07:11:49;;;;;;;9.30;3.30;;;;;;;;;;5054992;28;20033;-59
2021/08/11 07:14:15;;;;;;;6.72;3.85;;;;;;;;;;5054998;28;20399;-59
2021/08/11 07:16:41;;;;;;;4.88;3.65;;;;;;;;;;5054666;28;20055;-59
2021/08/11 07:19:10;;;;;;;5.20;3.72;;;;;;;;;;5054728;28;20068;-59
2021/08/11 07:21:36;;;;;;;5.45;3.78;;;;;;;;;;5054923;28;20028;-59
2021/08/11 07:24:02;;;;;;;4.95;3.75;;;;;;;;;;5054811;28;20075;-59
2021/08/11 07:26:28;;;;;;;5.30;4.03;;;;;;;;;;5055847;28;20455;-59
2021/08/11 07:28:56;;;;;;;5.65;3.40;;;;;;;;;;5055154;28;20033;-59
2021/08/11 07:31:22;;;;;;;6.55;3.08;;;;;;;;;;5054602;28;20104;-59
2021/08/11 07:33:48;;;;;;;5.97;3.35;;;;;;;;;;5054632;28;20052;-59
2021/08/11 07:36:14;;;;;;;3.97;2.92;;;;;;;;;;5054475;28;20052;-59
2021/08/11 07:38:40;;;;;;;8.30;3.30;;;;;;;;;;5053786;28;20025;-59
2021/08/11 07:41:06;;;;;;;6.28;3.80;;;;;;;;;;5054414;28;20031;-59
2021/08/11 07:43:32;;;;;;;6.43;3.45;;;;;;;;;;5055253;28;20029;-59
2021/08/11 07:45:58;;;;;;;6.28;3.85;;;;;;;;;;5054095;28;20047;-59
2021/08/11 07:48:24;;;;;;;5.25;2.72;;;;;;;;;;5054291;28;20029;-59
2021/08/11 07:50:50;;;;;;;5.13;3.03;;;;;;;;;;5054853;28;20021;-59
2021/08/11 07:53:16;;;;;;;3.83;2.97;;;;;;;;;;5054168;28;20024;-59
2021/08/11 07:55:42;;;;;;;5.30;3.50;;;;;;;;;;5054691;28;20021;-59
2021/08/11 07:58:08;;;;;;;4.68;2.75;;;;;;;;;;5054071;28;20125;-58
2021/08/11 08:00:34;;;;;;;5.35;3.22;;;;;;;;;;5054550;28;20048;-59
2021/08/11 08:03:00;;;;;;;4.88;2.80;;;;;;;;;;5054100;28;20025;-59
2021/08/11 08:05:26;;;;;;;11.32;2.63;;;;;;;;;;5053758;28;20017;-59
2021/08/11 08:07:52;;;;;;;5.57;3.28;;;;;;;;;;5053846;28;20037;-59
2021/08/11 08:10:18;;;;;;;6.88;3.28;;;;;;;;;;5053853;28;20463;-59
2021/08/11 08:12:44;;;;;;;5.85;3.33;;;;;;;;;;5053808;28;20112;-59
2021/08/11 08:15:11;;;;;;;3.83;2.90;;;;;;;;;;5053790;28;20070;-59
2021/08/11 08:17:38;;;;;;;5.03;3.05;;;;;;;;;;5053920;28;20060;-59
2021/08/11 08:20:04;;;;;;;3.45;2.30;;;;;;;;;;5053914;28;20021;-59
2021/08/11 08:22:30;;;;;;;4.20;3.17;;;;;;;;;;5053913;28;20028;-59
2021/08/11 08:24:56;;;;;;;6.50;3.45;;;;;;;;;;5053508;28;20383;-59
2021/08/11 08:27:23;;;;;;;5.75;2.58;;;;;;;;;;5053638;28;20044;-59
2021/08/11 08:29:51;;;;;;;3.83;3.03;;;;;;;;;;5053753;28;20060;-59
2021/08/11 08:32:17;;;;;;;3.47;2.60;;;;;;;;;;5053697;28;20025;-59
2021/08/11 08:34:43;;;;;;;5.20;3.58;;;;;;;;;;5053713;28;20021;-59
2021/08/11 08:37:09;;;;;;;6.32;3.13;;;;;;;;;;5053928;28;20390;-59
2021/08/11 08:39:35;;;;;;;4.30;3.22;;;;;;;;;;5053689;28;20109;-59
2021/08/11 08:42:01;;;;;;;4.18;3.05;;;;;;;;;;5054128;28;20068;-59
2021/08/11 08:44:28;;;;;;;4.63;3.17;;;;;;;;;;5053599;28;20048;-59
2021/08/11 08:46:55;;;;;;;3.53;2.58;;;;;;;;;;5053506;28;20029;-59
2021/08/11 08:49:22;;;;;;;4.05;2.85;;;;;;;;;;5053537;28;20029;-59
2021/08/11 08:51:53;;;;;;;3.58;3.10;;;;;;;;;;5054140;28;20028;-59
2021/08/11 08:54:23;;;;;;;3.95;3.25;;;;;;;;;;5054052;28;20028;-59
2021/08/11 08:56:49;;;;;;;;;;;;;;;;;;5054474;28;20391;-59
2021/08/11 08:59:15;;;;;;;4.97;3.17;;;;;;;;;;5053386;28;19904;-59
2021/08/11 09:01:41;;;;;;;4.03;2.40;;;;;;;;;;5053576;28;20021;-59
2021/08/11 09:04:10;;;;;;;4.35;3.45;;;;;;;;;;5054009;28;20021;-59
2021/08/11 09:06:37;;;;;;;5.28;3.33;;;;;;;;;;5053646;28;20025;-59
2021/08/11 09:09:07;;;;;;;10.00;3.45;;;;;;;;;;5053876;28;20029;-59
2021/08/11 09:11:37;;;;;;;4.97;3.05;;;;;;;;;;5053885;28;20028;-59
2021/08/11 09:14:16;;;;;;;4.13;3.15;;;;;;;;;;5053835;28;20040;-59
2021/08/11 09:16:45;;;;;;;5.13;3.10;;;;;;;;;;5053268;28;20470;-59
2021/08/11 09:19:12;;;;;;;7.28;3.10;;;;;;;;;;5052946;28;20025;-59
2021/08/11 09:21:38;;;;;;;3.78;2.90;;;;;;;;;;5053831;28;20410;-59
2021/08/11 09:24:16;;;;;;;5.68;2.78;;;;;;;;;;5053555;28;20044;-59
2021/08/11 09:26:42;;;;;;;3.58;2.50;;;;;;;;;;5053917;28;20128;-59
2021/08/11 09:29:09;;;;;;;5.80;3.35;;;;;;;;;;5053659;28;20090;-59
2021/08/11 09:31:36;;;;;;;5.82;3.70;;;;;;;;;;5053301;28;20029;-59
2021/08/11 09:34:03;;;;;;;3.78;2.50;;;;;;;;;;5053118;28;20025;-59
2021/08/11 09:36:49;;;;;;;4.38;2.75;;;;;;;;;;5053434;28;20025;-59
2021/08/11 09:39:16;;;;;;;3.97;2.60;;;;;;;;;;5056268;28;20025;-59
2021/08/11 09:42:02;;;;;;;3.63;2.85;;;;;;;;;;5056790;28;20104;-59
2021/08/11 09:44:28;;;;;;;3.95;2.55;;;;;;;;;;5057459;28;20111;-59
2021/08/11 09:46:54;;;;;;;4.57;3.83;;;;;;;;;;5056515;28;20125;-59
2021/08/11 09:49:24;;;;;;;4.10;2.55;;;;;;;;;;5056885;28;20052;-59
2021/08/11 09:52:00;;;;;;;3.10;2.47;;;;;;;;;;5056652;28;20017;-59
2021/08/11 09:54:28;;;;;;;3.78;2.63;;;;;;;;;;5056509;28;20036;-59
2021/08/11 09:56:54;;;;;;;3.25;2.35;;;;;;;;;;5056488;28;20135;-59
2021/08/11 09:59:20;;;;;;;5.70;2.90;;;;;;;;;;5056688;28;20025;-59
2021/08/11 10:01:46;;;;;;;4.10;2.53;;;;;;;;;;5056717;28;20025;-59
2021/08/11 10:04:14;;;;;;;3.78;2.50;;;;;;;;;;5056826;28;20074;-59
2021/08/11 10:06:40;;;;;;;3.38;2.72;;;;;;;;;;5056171;28;20021;-59
2021/08/11 10:09:12;;;;;;;5.70;3.38;;;;;;;;;;5056153;28;20048;-59
2021/08/11 10:11:39;;;;;;;4.68;2.97;;;;;;;;;;5056741;28;20021;-59
2021/08/11 10:14:08;;;;;;;3.85;3.03;;;;;;;;;;5056591;28;20103;-59
2021/08/11 10:16:35;;;;;;;3.72;1.88;;;;;;;;;;5056090;28;20107;-59
2021/08/11 10:19:03;;;;;;;3.03;2.28;;;;;;;;;;5056518;28;20025;-59
2021/08/11 10:21:29;;;;;;;3.05;2.22;;;;;;;;;;5056024;28;20498;-59
2021/08/11 10:23:55;;;;;;;3.65;2.58;;;;;;;;;;5055890;28;20021;-59
2021/08/11 10:26:21;;;;;;;3.40;2.97;;;;;;;;;;5056122;28;20501;-59
2021/08/11 10:28:48;;;;;;;4.38;3.13;;;;;;;;;;5055831;28;20056;-59
2021/08/11 10:31:14;;;;;;;3.90;2.85;;;;;;;;;;5056546;28;20024;-59
2021/08/11 10:33:40;;;;;;;4.00;2.50;;;;;;;;;;5056497;28;20406;-59
2021/08/11 10:36:07;;;;;;;3.58;2.70;;;;;;;;;;5055768;28;20024;-59
2021/08/11 10:38:35;;;;;;;4.28;2.60;;;;;;;;;;5055604;28;20029;-59
2021/08/11 10:41:01;;;;;;;3.65;2.65;;;;;;;;;;5054087;28;20025;-59
2021/08/11 10:43:32;;;;;;;4.30;2.80;;;;;;;;;;5055873;28;20025;-59
2021/08/11 10:46:00;;;;;;;4.18;2.90;;;;;;;;;;5055858;28;20036;-59
2021/08/11 10:48:26;;;;;;;2.72;2.33;;;;;;;;;;5055700;28;20044;-59
2021/08/11 10:50:52;;;;;;;3.45;2.63;;;;;;;;;;5054911;28;20022;-59
2021/08/11 10:53:18;;;;;;;6.07;2.70;;;;;;;;;;5055358;28;20036;-59
2021/08/11 10:55:49;;;;;;;3.97;2.92;;;;;;;;;;5055641;28;20029;-60
2021/08/11 10:58:33;;;;;;;3.80;2.45;;;;;;;;;;5055352;28;20059;-59
2021/08/11 11:00:59;;;;;;;8.57;2.50;;;;;;;;;;5055764;28;20029;-59
2021/08/11 11:03:44;;;;;;;6.78;2.97;;;;;;;;;;5055449;28;20025;-59
2021/08/11 11:06:10;;;;;;;4.80;3.40;;;;;;;;;;5055208;28;20033;-59
2021/08/11 11:08:36;;;;;;;5.55;3.17;;;;;;;;;;5055527;28;20501;-59
2021/08/11 11:11:32;;;;;;;4.78;3.03;;;;;;;;;;5055313;28;20373;-59
2021/08/11 11:13:58;;;;;;;7.18;3.08;;;;;;;;;;5055118;28;20021;-59
2021/08/11 11:16:44;;;;;;;3.58;2.90;;;;;;;;;;5055774;28;20029;-59
2021/08/11 11:19:10;;;;;;;4.78;3.08;;;;;;;;;;5054508;28;20021;-59
2021/08/11 11:21:35;;;;;;;5.15;2.92;;;;;;;;;;5055163;28;20027;-59
2021/08/11 11:24:01;;;;;;;3.70;2.97;;;;;;;;;;5054889;28;20028;-59
2021/08/11 11:26:31;;;;;;;3.53;2.72;;;;;;;;;;5054373;28;20049;-59
2021/08/11 11:29:11;;;;;;;4.00;3.42;;;;;;;;;;5055387;28;20512;-59
2021/08/11 11:31:37;;;;;;;5.45;3.00;;;;;;;;;;5054919;28;20116;-59
2021/08/11 11:34:23;;;;;;;5.00;2.97;;;;;;;;;;5055378;28;20446;-59
2021/08/11 11:36:55;;;;;;;4.43;2.90;;;;;;;;;;5054432;28;20029;-59
2021/08/11 11:39:25;;;;;;;4.88;3.40;;;;;;;;;;5054743;28;20055;-59
2021/08/11 11:42:11;;;;;;;3.45;2.75;;;;;;;;;;5055097;28;20487;-59
2021/08/11 11:44:47;;;;;;;5.18;2.72;;;;;;;;;;5054997;28;20411;-59
2021/08/11 11:47:17;;;;;;;4.78;3.47;;;;;;;;;;5054789;28;20033;-59
2021/08/11 11:49:43;;;;;;;4.30;2.90;;;;;;;;;;5054554;28;20354;-59
2021/08/11 11:52:17;;;;;;;3.65;3.08;;;;;;;;;;5054630;28;20363;-59
2021/08/11 11:54:47;;;;;;;5.70;3.17;;;;;;;;;;5054173;28;20449;-59
2021/08/11 11:57:13;;;;;;;;;;;;;;;;;;5055122;28;20029;-59
2021/08/11 11:59:48;;;;;;;2.97;2.55;;;;;;;;;;5054123;28;20351;-59
2021/08/11 12:02:18;;;;;;;6.55;3.55;;;;;;;;;;5053111;28;20486;-59
2021/08/11 12:04:55;;;;;;;4.03;2.60;;;;;;;;;;5054605;28;20028;-59
2021/08/11 12:07:27;;;;;;;4.05;3.08;;;;;;;;;;5054047;28;20287;-59
2021/08/11 12:09:53;;;;;;;4.55;3.42;;;;;;;;;;5054488;28;20021;-59
2021/08/11 12:12:20;;;;;;;3.90;2.83;;;;;;;;;;5054675;28;20067;-59
2021/08/11 12:14:46;;;;;;;5.07;3.42;;;;;;;;;;5054524;28;20036;-59
2021/08/11 12:17:28;;;;;;;5.30;3.28;;;;;;;;;;5053570;28;20025;-59
2021/08/11 12:19:54;;;;;;;7.13;3.50;;;;;;;;;;5054029;28;20024;-59
2021/08/11 12:22:33;;;;;;;8.30;3.25;;;;;;;;;;5054118;28;20383;-59
2021/08/11 12:24:59;;;;;;;4.60;3.90;;;;;;;;;;5053659;28;20041;-59
2021/08/11 12:27:24;;;;;;;6.20;4.05;;;;;;;;;;5054542;28;20032;-59
2021/08/11 12:30:10;;;;;;;3.85;2.97;;;;;;;;;;5053686;28;20025;-59
2021/08/11 12:32:36;;;;;;;3.63;2.85;;;;;;;;;;5053619;28;20031;-59
2021/08/11 12:35:04;;;;;;;4.82;2.63;;;;;;;;;;5053898;28;20025;-59
2021/08/11 12:37:30;;;;;;;4.10;3.40;;;;;;;;;;5053590;28;20482;-59
2021/08/11 12:39:56;;;;;;;4.13;3.03;;;;;;;;;;5053592;28;20017;-59
2021/08/11 12:42:22;;;;;;;5.32;3.00;;;;;;;;;;5054310;28;20176;-59
2021/08/11 12:44:54;;;;;;;4.18;2.95;;;;;;;;;;5054068;28;20017;-59
2021/08/11 12:47:25;;;;;;;3.22;2.67;;;;;;;;;;5052680;28;20455;-59
2021/08/11 12:49:51;;;;;;;4.53;3.00;;;;;;;;;;5054006;28;20052;-59
2021/08/11 12:52:18;;;;;;;4.80;2.63;;;;;;;;;;5054106;28;20013;-59
2021/08/11 12:55:04;;;;;;;6.07;3.28;;;;;;;;;;5053721;28;20021;-59
2021/08/11 12:57:39;;;;;;;4.07;2.75;;;;;;;;;;5053485;28;20025;-59
2021/08/11 13:00:06;;;;;;;4.25;2.50;;;;;;;;;;5053746;28;20045;-59
2021/08/11 13:02:32;;;;;;;4.07;2.83;;;;;;;;;;5053506;28;20030;-59
2021/08/11 13:05:11;;;;;;;6.43;2.85;;;;;;;;;;5053323;28;20466;-59
2021/08/11 13:07:49;;;;;;;5.57;3.25;;;;;;;;;;5053207;28;20033;-59
2021/08/11 13:10:17;;;;;;;5.43;2.85;;;;;;;;;;5053819;28;20021;-59
2021/08/11 13:12:43;;;;;;;3.88;2.85;;;;;;;;;;5054029;28;20021;-59
2021/08/11 13:15:24;;;;;;;3.30;2.83;;;;;;;;;;5057071;28;20025;-59
2021/08/11 13:17:58;;;;;;;5.57;2.85;;;;;;;;;;5057882;28;20055;-59
2021/08/11 13:20:28;;;;;;;3.83;2.30;;;;;;;;;;5056910;28;20477;-59
2021/08/11 13:22:54;;;;;;;;;;;;;;;;;;5057520;28;20063;-59
2021/08/11 13:25:20;;;;;;;3.80;2.25;;;;;;;;;;5056804;28;19916;-59
2021/08/11 13:27:48;;;;;;;4.97;2.30;;;;;;;;;;5056665;28;20589;-59
2021/08/11 13:30:14;;;;;;;5.22;3.05;;;;;;;;;;5056797;28;20350;-59
2021/08/11 13:32:40;;;;;;;5.63;3.60;;;;;;;;;;5057111;28;20471;-59
2021/08/11 13:35:07;;;;;;;4.88;3.05;;;;;;;;;;5057240;28;20017;-60
2021/08/11 13:37:33;;;;;;;4.15;2.97;;;;;;;;;;5056775;28;20130;-59
2021/08/11 13:39:59;;;;;;;4.32;3.17;;;;;;;;;;5056768;28;20425;-59
2021/08/11 13:42:26;;;;;;;3.90;2.80;;;;;;;;;;5057508;28;20448;-60
2021/08/11 13:44:55;;;;;;;4.82;2.88;;;;;;;;;;5057464;28;20029;-59
2021/08/11 13:47:24;;;;;;;4.65;3.17;;;;;;;;;;5056518;28;20036;-59
2021/08/11 13:49:51;;;;;;;3.85;2.70;;;;;;;;;;5056563;28;20394;-59
2021/08/11 13:52:17;;;;;;;7.10;2.95;;;;;;;;;;5057087;28;20074;-59
2021/08/11 13:54:43;;;;;;;5.10;2.80;;;;;;;;;;5055926;28;20382;-59
2021/08/11 13:57:09;;;;;;;6.13;3.15;;;;;;;;;;5057031;28;20017;-59
2021/08/11 13:59:35;;;;;;;3.20;2.40;;;;;;;;;;5056844;28;20025;-59
2021/08/11 14:02:01;;;;;;;5.68;2.83;;;;;;;;;;5056256;28;20029;-59
2021/08/11 14:04:29;;;;;;;3.90;3.08;;;;;;;;;;5057083;28;20029;-59
2021/08/11 14:06:55;;;;;;;3.17;2.63;;;;;;;;;;5056675;28;20032;-59
2021/08/11 14:09:21;;;;;;;3.20;2.47;;;;;;;;;;5056064;28;20071;-60
2021/08/11 14:11:47;;;;;;;5.30;2.60;;;;;;;;;;5056483;28;20087;-59
2021/08/11 14:14:13;;;;;;;5.90;2.65;;;;;;;;;;5056042;28;20095;-60
2021/08/11 14:16:39;;;;;;;4.70;3.05;;;;;;;;;;5056832;28;20017;-59
2021/08/11 14:19:05;;;;;;;3.55;2.83;;;;;;;;;;5055906;28;20024;-60
2021/08/11 14:21:32;;;;;;;4.55;2.47;;;;;;;;;;5056046;28;20044;-59
2021/08/11 14:23:58;;;;;;;3.50;2.42;;;;;;;;;;5055270;28;20032;-59
2021/08/11 14:26:24;;;;;;;4.95;3.00;;;;;;;;;;5056082;28;20053;-60
2021/08/11 14:28:50;;;;;;;3.33;2.90;;;;;;;;;;5055911;28;20064;-59
2021/08/11 14:31:16;;;;;;;3.58;2.33;;;;;;;;;;5056357;28;20398;-59
2021/08/11 14:33:42;;;;;;;3.85;2.35;;;;;;;;;;5056354;28;20024;-59
2021/08/11 14:36:08;;;;;;;3.53;2.83;;;;;;;;;;5055442;28;20025;-60
2021/08/11 14:38:35;;;;;;;3.58;2.80;;;;;;;;;;5055954;28;20051;-59
2021/08/11 14:41:01;;;;;;;3.92;3.17;;;;;;;;;;5055427;28;20108;-60
2021/08/11 14:43:27;;;;;;;6.45;3.65;;;;;;;;;;5056129;28;20019;-59
2021/08/11 14:45:53;;;;;;;3.60;2.58;;;;;;;;;;5055626;28;20032;-60